Terminal Aerodrome Forecast
Issued by NWS Houston/Galveston, TX

Home | Current Version | Previous Version | Text Only | Print | Product List | Glossary On
Versions: 1 2 3 4 5 6 7 8 9 10 11 12 13 14 15 16 17 18 19 20 21 22 23 24 25 26 27 28 29 30 31 32 33 34 35 36 37 38 39 40 41 42 43
120
FTUS44 KHGX 280541
TAFGLS
TAF
KGLS 280541Z 2806/0106 14014KT 6SM BR FEW005 OVC013
     FM280800 14011KT 5SM BR SCT005 BKN010
     FM281700 16015KT P6SM SCT020
     FM010100 18013KT P6SM BKN012=

USA.gov is the U.S. government's official web portal to all federal, state and local government web resources and services.